createdAt,value
2022-08-26T00:02:45.573Z,18.88
2022-08-26T00:05:48.090Z,19.12
2022-08-26T00:08:50.169Z,18.89
2022-08-26T00:11:53.860Z,18.84
2022-08-26T00:14:55.519Z,19.09
2022-08-26T00:17:57.409Z,19.14
2022-08-26T00:20:59.012Z,18.99
2022-08-26T00:24:00.483Z,18.37
2022-08-26T00:27:04.934Z,18.77
2022-08-26T00:30:12.016Z,18.68
2022-08-26T00:33:14.610Z,18.26
2022-08-26T00:36:20.447Z,18.48
2022-08-26T00:39:22.101Z,18.08
2022-08-26T00:42:24.197Z,18.25
2022-08-26T00:45:32.958Z,17.46
2022-08-26T00:48:37.670Z,18.21
2022-08-26T00:51:55.157Z,18.75
2022-08-26T00:55:09.398Z,18.96
2022-08-26T00:58:11.154Z,19.02
2022-08-26T01:01:12.818Z,19.01
2022-08-26T01:04:19.183Z,18.24
2022-08-26T01:07:21.653Z,17.83
2022-08-26T01:10:29.657Z,17.99
2022-08-26T01:13:32.344Z,18.55
2022-08-26T01:16:35.485Z,18.66
2022-08-26T01:19:43.459Z,18.80
2022-08-26T01:22:58.673Z,18.50
2022-08-26T01:26:19.621Z,18.37
2022-08-26T01:29:21.845Z,17.82
2022-08-26T01:32:25.717Z,17.81
2022-08-26T01:35:29.303Z,17.51
2022-08-26T01:38:31.612Z,17.11
2022-08-26T01:41:34.990Z,17.20
2022-08-26T01:44:42.446Z,17.32
2022-08-26T01:47:47.480Z,18.05
2022-08-26T01:50:51.604Z,18.41
2022-08-26T01:53:53.792Z,18.44
2022-08-26T01:56:56.991Z,18.53
2022-08-26T02:00:00.913Z,18.44
2022-08-26T02:03:16.608Z,18.13
2022-08-26T02:06:19.684Z,17.98
2022-08-26T02:09:22.107Z,17.97
2022-08-26T02:12:25.805Z,17.66
2022-08-26T02:15:28.169Z,17.74
2022-08-26T02:18:30.960Z,17.58
2022-08-26T02:21:32.827Z,18.02
2022-08-26T02:24:58.962Z,18.24
2022-08-26T02:28:01.793Z,18.33
2022-08-26T02:31:04.868Z,18.22
2022-08-26T02:34:15.186Z,17.90
2022-08-26T02:37:17.740Z,17.82
2022-08-26T02:40:24.445Z,17.21
2022-08-26T02:43:32.686Z,16.84
2022-08-26T02:46:34.874Z,17.12
2022-08-26T02:49:40.069Z,17.00
2022-08-26T02:52:46.045Z,16.62
2022-08-26T02:55:49.421Z,16.81
2022-08-26T02:58:51.500Z,17.39
2022-08-26T03:01:56.136Z,16.93
2022-08-26T03:05:02.019Z,17.21
2022-08-26T03:08:04.619Z,17.56
2022-08-26T03:11:06.156Z,17.70
2022-08-26T03:14:08.369Z,17.64
2022-08-26T03:17:09.848Z,17.34
2022-08-26T03:20:11.729Z,17.52
2022-08-26T03:23:15.208Z,17.37
2022-08-26T03:26:16.825Z,17.28
2022-08-26T03:29:36.782Z,17.30
2022-08-26T03:32:38.309Z,17.05
2022-08-26T03:35:45.022Z,16.57
2022-08-26T03:38:46.649Z,16.10
2022-08-26T03:41:48.193Z,16.66
2022-08-26T03:44:51.374Z,16.92
2022-08-26T03:47:53.216Z,17.44
2022-08-26T03:50:54.645Z,17.60
2022-08-26T03:53:57.494Z,17.75
2022-08-26T03:56:58.967Z,17.83
2022-08-26T04:00:00.461Z,17.13
2022-08-26T04:03:01.954Z,16.99
2022-08-26T04:06:04.069Z,16.00
2022-08-26T04:09:09.247Z,15.61
2022-08-26T04:12:11.088Z,16.44
2022-08-26T04:15:15.738Z,16.72
2022-08-26T04:18:17.297Z,16.81
2022-08-26T04:21:19.703Z,17.11
2022-08-26T04:24:24.491Z,16.52
2022-08-26T04:27:26.110Z,15.93
2022-08-26T04:30:28.158Z,15.19
2022-08-26T04:33:32.456Z,15.64
2022-08-26T04:36:34.795Z,16.72
2022-08-26T04:39:37.258Z,16.97
2022-08-26T04:42:38.744Z,17.00
2022-08-26T04:45:41.695Z,16.85
2022-08-26T04:48:43.431Z,16.54
2022-08-26T04:51:45.230Z,16.70
2022-08-26T04:54:46.739Z,16.41
2022-08-26T04:57:48.213Z,15.46
2022-08-26T05:00:51.473Z,15.16
2022-08-26T05:03:52.967Z,15.36
2022-08-26T05:06:57.901Z,16.59
2022-08-26T05:10:04.705Z,16.75
2022-08-26T05:13:16.192Z,15.69
2022-08-26T05:16:19.634Z,15.27
2022-08-26T05:19:21.702Z,15.57
2022-08-26T05:22:23.179Z,15.90
2022-08-26T05:25:24.694Z,15.56
2022-08-26T05:28:29.876Z,15.88
2022-08-26T05:31:33.116Z,16.56
2022-08-26T05:34:34.677Z,16.53
2022-08-26T05:37:38.129Z,16.59
2022-08-26T05:40:44.510Z,17.02
2022-08-26T05:43:46.173Z,16.72
2022-08-26T05:46:47.715Z,16.27
2022-08-26T05:49:51.546Z,16.77
2022-08-26T05:52:53.252Z,16.85
2022-08-26T05:55:56.569Z,16.57
2022-08-26T05:59:01.387Z,16.42
2022-08-26T06:02:02.916Z,16.58
2022-08-26T06:05:04.869Z,16.97
2022-08-26T06:08:13.851Z,16.67
2022-08-26T06:11:18.857Z,16.84
2022-08-26T06:14:20.357Z,16.65
2022-08-26T06:17:21.802Z,15.88
2022-08-26T06:20:24.951Z,15.88
2022-08-26T06:23:48.277Z,16.53
2022-08-26T06:26:52.990Z,16.43
2022-08-26T06:29:54.694Z,17.00
2022-08-26T06:32:56.197Z,17.48
2022-08-26T06:35:58.347Z,17.47
2022-08-26T06:39:04.855Z,17.49
2022-08-26T06:42:07.165Z,17.45
2022-08-26T06:45:09.118Z,17.78
2022-08-26T06:48:10.730Z,17.78
2022-08-26T06:51:14.957Z,17.37
2022-08-26T06:54:16.377Z,17.02
2022-08-26T06:57:17.831Z,17.03
2022-08-26T07:00:20.621Z,17.36
2022-08-26T07:03:22.306Z,17.72
2022-08-26T07:06:24.623Z,18.06
2022-08-26T07:09:29.499Z,18.34
2022-08-26T07:12:30.991Z,18.67
2022-08-26T07:15:33.591Z,18.84
2022-08-26T07:18:36.967Z,18.97
2022-08-26T07:21:44.031Z,19.19
2022-08-26T07:25:26.261Z,19.55
2022-08-26T07:28:28.293Z,19.78
2022-08-26T07:31:37.378Z,19.82
2022-08-26T07:34:42.028Z,20.00
2022-08-26T07:37:43.509Z,20.07
2022-08-26T07:40:44.977Z,20.18
2022-08-26T07:43:46.785Z,20.20
2022-08-26T07:46:52.314Z,20.42
2022-08-26T07:49:56.483Z,20.64
2022-08-26T07:52:58.055Z,20.82
2022-08-26T07:55:59.569Z,20.94
2022-08-26T07:59:01.265Z,21.09
2022-08-26T08:02:04.254Z,21.10
2022-08-26T08:05:06.580Z,21.10
2022-08-26T08:08:27.049Z,21.24
2022-08-26T08:11:31.122Z,21.43
2022-08-26T08:14:34.466Z,21.57
2022-08-26T08:17:35.873Z,21.70
2022-08-26T08:20:37.337Z,21.81
2022-08-26T08:23:39.645Z,21.86
2022-08-26T08:26:41.611Z,22.00
2022-08-26T08:29:43.094Z,22.14
2022-08-26T08:32:45.390Z,22.40
2022-08-26T08:35:48.291Z,22.57
2022-08-26T08:38:50.078Z,22.52
2022-08-26T08:42:20.193Z,22.52
2022-08-26T08:45:36.646Z,22.70
2022-08-26T08:48:46.731Z,22.73
2022-08-26T08:52:07.473Z,22.80
2022-08-26T08:55:10.339Z,22.79
2022-08-26T08:58:19.126Z,22.81
2022-08-26T09:01:43.151Z,22.84
2022-08-26T09:05:15.410Z,22.81
2022-08-26T09:08:23.142Z,22.95
2022-08-26T09:11:24.837Z,22.94
2022-08-26T09:14:27.885Z,22.96
2022-08-26T09:17:48.042Z,23.08
2022-08-26T09:20:58.258Z,23.30
2022-08-26T09:24:00.091Z,23.31
2022-08-26T09:27:01.612Z,23.37
2022-08-26T09:30:04.665Z,23.60
2022-08-26T09:33:10.482Z,23.81
2022-08-26T09:36:18.567Z,23.67
2022-08-26T09:39:39.210Z,23.98
2022-08-26T09:42:40.719Z,24.01
2022-08-26T09:45:50.794Z,24.12
2022-08-26T09:48:54.475Z,24.22
2022-08-26T09:52:03.717Z,24.40
2022-08-26T09:55:21.902Z,24.59
2022-08-26T09:58:34.388Z,24.84
2022-08-26T10:01:43.363Z,24.90
2022-08-26T10:04:52.024Z,24.85
2022-08-26T10:07:54.206Z,25.07
2022-08-26T10:10:59.435Z,25.19
2022-08-26T10:14:07.750Z,25.41
2022-08-26T10:17:13.491Z,25.58
2022-08-26T10:20:23.346Z,25.88
2022-08-26T10:23:31.009Z,26.37
2022-08-26T10:27:05.750Z,26.85
2022-08-26T10:30:14.735Z,26.74
2022-08-26T10:33:18.383Z,26.95
2022-08-26T10:37:05.197Z,27.37
2022-08-26T10:40:07.481Z,27.26
2022-08-26T10:43:17.358Z,27.42
2022-08-26T10:46:27.084Z,27.84
2022-08-26T10:49:29.470Z,28.13
2022-08-26T10:53:03.844Z,27.73
2022-08-26T10:56:24.358Z,27.40
2022-08-26T10:59:55.270Z,27.52
2022-08-26T11:03:06.377Z,27.63
2022-08-26T11:06:27.828Z,27.54
2022-08-26T11:09:49.086Z,27.71
2022-08-26T11:12:51.477Z,27.74
2022-08-26T11:15:58.554Z,28.09
2022-08-26T11:19:03.866Z,27.96
2022-08-26T11:22:28.056Z,27.58
2022-08-26T11:25:30.945Z,27.88
2022-08-26T11:28:38.385Z,28.36
2022-08-26T11:31:40.258Z,28.77
2022-08-26T11:35:04.663Z,28.89
2022-08-26T11:38:23.387Z,28.58
2022-08-26T11:41:29.200Z,28.83
2022-08-26T11:44:41.304Z,28.90
2022-08-26T11:47:51.005Z,28.69
2022-08-26T11:51:11.006Z,28.51
2022-08-26T11:54:16.417Z,28.44
2022-08-26T11:57:17.930Z,28.55
2022-08-26T12:00:26.908Z,28.67
2022-08-26T12:03:36.816Z,28.78
2022-08-26T12:06:45.843Z,28.85
2022-08-26T12:09:54.483Z,28.81
2022-08-26T12:12:59.670Z,29.15
2022-08-26T12:16:01.297Z,29.55
2022-08-26T12:19:26.326Z,29.56
2022-08-26T12:22:34.495Z,29.32
2022-08-26T12:25:36.463Z,29.49
2022-08-26T12:28:47.618Z,29.63
2022-08-26T12:31:49.708Z,29.04
2022-08-26T12:34:51.441Z,29.15
2022-08-26T12:37:54.198Z,29.17
2022-08-26T12:40:56.904Z,29.15
2022-08-26T12:43:58.371Z,29.42
2022-08-26T12:47:10.429Z,29.20
2022-08-26T12:50:27.856Z,28.56
2022-08-26T12:53:32.184Z,28.35
2022-08-26T12:56:39.417Z,28.48
2022-08-26T12:59:41.172Z,28.13
2022-08-26T13:02:42.627Z,28.19
2022-08-26T13:05:44.295Z,28.22
2022-08-26T13:09:11.848Z,28.10
2022-08-26T13:12:33.063Z,28.00
2022-08-26T13:15:34.636Z,27.81
2022-08-26T13:18:37.197Z,27.72
2022-08-26T13:21:47.737Z,27.67
2022-08-26T13:24:49.218Z,27.64
2022-08-26T13:27:50.769Z,27.61
2022-08-26T13:30:52.910Z,27.65
2022-08-26T13:33:54.366Z,27.54
2022-08-26T13:36:56.877Z,27.48
2022-08-26T13:39:58.963Z,27.53
2022-08-26T13:43:00.467Z,27.43
2022-08-26T13:46:01.983Z,27.34
2022-08-26T13:49:03.837Z,27.23
2022-08-26T13:52:05.375Z,26.45
2022-08-26T13:55:07.813Z,25.92
2022-08-26T13:58:10.922Z,25.69
2022-08-26T14:01:12.675Z,25.47
2022-08-26T14:04:14.461Z,25.54
2022-08-26T14:07:16.027Z,25.34
2022-08-26T14:10:17.522Z,25.29
2022-08-26T14:13:19.035Z,25.22
2022-08-26T14:16:33.366Z,25.08
2022-08-26T14:19:35.369Z,24.89
2022-08-26T14:23:03.659Z,24.25
2022-08-26T14:26:08.182Z,23.96
2022-08-26T14:29:12.379Z,23.85
2022-08-26T14:32:25.899Z,23.83
2022-08-26T14:35:30.246Z,23.04
2022-08-26T14:38:31.669Z,22.50
2022-08-26T14:41:35.306Z,22.14
2022-08-26T14:44:37.121Z,22.02
2022-08-26T14:47:39.005Z,21.84
2022-08-26T14:50:43.997Z,21.12
2022-08-26T14:54:03.868Z,20.95
2022-08-26T14:57:10.903Z,20.85
2022-08-26T15:00:13.836Z,20.83
2022-08-26T15:06:21.891Z,20.78
2022-08-26T15:09:25.310Z,20.75
2022-08-26T15:12:27.719Z,20.63
2022-08-26T15:15:30.542Z,20.99
2022-08-26T15:18:32.011Z,20.58
2022-08-26T15:21:34.485Z,20.76
2022-08-26T15:24:36.441Z,20.97
2022-08-26T15:27:38.193Z,21.09
2022-08-26T15:30:39.694Z,21.20
2022-08-26T15:33:41.539Z,21.03
2022-08-26T15:36:45.731Z,20.72
2022-08-26T15:39:47.769Z,20.93
2022-08-26T15:42:54.351Z,20.96
2022-08-26T15:46:03.092Z,21.09
2022-08-26T15:49:04.605Z,21.01
2022-08-26T15:52:07.478Z,20.80
2022-08-26T15:55:09.389Z,20.75
2022-08-26T15:58:10.924Z,20.77
2022-08-26T16:01:12.442Z,21.03
2022-08-26T16:04:14.094Z,21.17
2022-08-26T16:07:15.604Z,21.31
2022-08-26T16:10:18.532Z,21.39
2022-08-26T16:13:20.296Z,21.21
2022-08-26T16:16:21.896Z,21.21
2022-08-26T16:19:23.434Z,21.06
2022-08-26T16:22:27.120Z,20.80
2022-08-26T16:25:30.735Z,20.37
2022-08-26T16:28:32.236Z,20.15
2022-08-26T16:31:33.938Z,19.99
2022-08-26T16:34:36.082Z,19.82
2022-08-26T16:37:39.361Z,19.62
2022-08-26T16:40:41.213Z,19.65
2022-08-26T16:43:42.710Z,19.58
2022-08-26T16:46:45.467Z,19.42
2022-08-26T16:49:47.443Z,19.56
2022-08-26T16:52:55.741Z,19.49
2022-08-26T16:55:57.367Z,19.50
2022-08-26T16:58:59.310Z,19.53
2022-08-26T17:02:01.751Z,19.56
2022-08-26T17:05:03.618Z,19.47
2022-08-26T17:08:05.801Z,19.33
2022-08-26T17:11:08.306Z,19.37
2022-08-26T17:14:10.234Z,19.31
2022-08-26T17:17:11.835Z,19.20
2022-08-26T17:20:16.926Z,19.21
2022-08-26T17:23:19.715Z,19.23
2022-08-26T17:26:21.213Z,19.31
2022-08-26T17:29:22.727Z,19.29
2022-08-26T17:32:24.204Z,19.21
2022-08-26T17:35:26.207Z,19.14
2022-08-26T17:38:28.993Z,19.06
2022-08-26T17:41:30.565Z,19.11
2022-08-26T17:44:32.065Z,19.16
2022-08-26T17:47:33.916Z,19.26
2022-08-26T17:50:35.553Z,19.24
2022-08-26T17:53:38.482Z,19.36
2022-08-26T17:56:40.020Z,19.32
2022-08-26T17:59:43.082Z,19.39
2022-08-26T18:02:45.365Z,19.39
2022-08-26T18:05:49.347Z,19.43
2022-08-26T18:08:51.318Z,19.43
2022-08-26T18:11:55.122Z,19.38
2022-08-26T18:14:56.581Z,19.29
2022-08-26T18:17:58.411Z,19.20
2022-08-26T18:21:01.825Z,19.23
2022-08-26T18:24:04.032Z,19.26
2022-08-26T18:27:05.584Z,19.26
2022-08-26T18:30:16.597Z,19.24
2022-08-26T18:33:21.316Z,19.25
2022-08-26T18:36:27.073Z,19.26
2022-08-26T18:39:28.560Z,19.20
2022-08-26T18:42:30.052Z,19.19
2022-08-26T18:45:31.511Z,19.02
2022-08-26T18:48:34.185Z,18.98
2022-08-26T18:51:36.651Z,19.07
2022-08-26T18:54:38.135Z,18.89
2022-08-26T18:57:39.690Z,18.57
2022-08-26T19:00:41.198Z,18.58
2022-08-26T19:03:43.224Z,18.60
2022-08-26T19:06:47.965Z,18.62
2022-08-26T19:09:49.667Z,18.54
2022-08-26T19:13:00.135Z,18.58
2022-08-26T19:16:02.370Z,18.50
2022-08-26T19:19:04.278Z,18.57
2022-08-26T19:22:06.319Z,18.76
2022-08-26T19:25:10.055Z,18.90
2022-08-26T19:28:16.822Z,19.06
2022-08-26T19:31:18.939Z,18.95
2022-08-26T19:34:21.066Z,19.04
2022-08-26T19:37:23.959Z,18.93
2022-08-26T19:40:25.621Z,18.51
2022-08-26T19:43:27.307Z,18.65
2022-08-26T19:46:33.256Z,18.92
2022-08-26T19:49:36.072Z,18.86
2022-08-26T19:52:39.606Z,18.78
2022-08-26T19:55:42.368Z,18.84
2022-08-26T19:58:44.973Z,18.94
2022-08-26T20:01:47.146Z,18.81
2022-08-26T20:05:04.943Z,18.64
2022-08-26T20:08:06.684Z,18.60
2022-08-26T20:11:12.204Z,18.34
2022-08-26T20:14:18.212Z,18.37
2022-08-26T20:17:22.338Z,18.51
2022-08-26T20:20:42.671Z,18.50
2022-08-26T20:23:44.349Z,17.83
2022-08-26T20:26:46.062Z,17.47
2022-08-26T20:29:47.856Z,17.50
2022-08-26T20:32:49.481Z,17.55
2022-08-26T20:35:51.343Z,17.66
2022-08-26T20:38:54.780Z,17.98
2022-08-26T20:41:57.106Z,18.04
2022-08-26T20:44:58.577Z,18.00
2022-08-26T20:48:00.409Z,18.16
2022-08-26T20:51:02.005Z,18.16
2022-08-26T20:54:05.133Z,18.09
2022-08-26T20:57:06.806Z,18.23
2022-08-26T21:00:09.554Z,18.28
2022-08-26T21:03:11.180Z,18.17
2022-08-26T21:06:12.891Z,17.84
2022-08-26T21:09:18.250Z,17.72
2022-08-26T21:12:19.744Z,17.32
2022-08-26T21:15:22.123Z,17.72
2022-08-26T21:18:24.479Z,17.40
2022-08-26T21:21:27.521Z,17.11
2022-08-26T21:24:29.333Z,17.43
2022-08-26T21:27:30.990Z,17.94
2022-08-26T21:30:34.588Z,17.90
2022-08-26T21:33:36.585Z,18.01
2022-08-26T21:36:38.099Z,18.09
2022-08-26T21:39:39.577Z,17.64
2022-08-26T21:42:41.386Z,17.56
2022-08-26T21:45:42.942Z,17.64
2022-08-26T21:48:50.767Z,17.07
2022-08-26T21:51:52.505Z,16.97
2022-08-26T21:54:59.700Z,17.49
2022-08-26T21:58:02.116Z,17.51
2022-08-26T22:01:07.539Z,17.23
2022-08-26T22:04:10.298Z,17.02
2022-08-26T22:07:11.976Z,17.08
2022-08-26T22:10:13.705Z,17.23
2022-08-26T22:13:15.755Z,17.73
2022-08-26T22:16:18.185Z,17.82
2022-08-26T22:19:20.825Z,17.79
2022-08-26T22:22:26.000Z,17.38
2022-08-26T22:25:27.559Z,17.19
2022-08-26T22:28:29.196Z,17.13
2022-08-26T22:31:38.021Z,17.39
2022-08-26T22:34:41.784Z,17.50
2022-08-26T22:37:43.645Z,17.17
2022-08-26T22:40:48.422Z,17.17
2022-08-26T22:43:49.919Z,17.33
2022-08-26T22:46:54.156Z,17.23
2022-08-26T22:49:57.557Z,17.13
2022-08-26T22:52:58.950Z,16.90
2022-08-26T22:56:00.868Z,17.07
2022-08-26T22:59:06.683Z,17.19
2022-08-26T23:02:08.243Z,17.44
2022-08-26T23:05:13.609Z,17.30
2022-08-26T23:08:16.395Z,17.13
2022-08-26T23:11:18.989Z,17.35
2022-08-26T23:14:20.709Z,17.51
2022-08-26T23:17:22.225Z,17.29
2022-08-26T23:20:23.910Z,17.09
2022-08-26T23:23:28.135Z,17.17
2022-08-26T23:26:29.584Z,17.20
2022-08-26T23:29:31.696Z,17.58
2022-08-26T23:32:33.191Z,17.76
2022-08-26T23:35:34.690Z,17.36
2022-08-26T23:38:36.368Z,17.20
2022-08-26T23:41:42.637Z,17.18
2022-08-26T23:44:44.204Z,17.38
2022-08-26T23:47:47.336Z,17.13
2022-08-26T23:51:07.623Z,17.10
2022-08-26T23:54:09.254Z,17.04
2022-08-26T23:57:11.120Z,16.92
